sensor_id;sensor_type;location;lat;lon;timestamp;P1;durP1;ratioP1;P2;durP2;ratioP2
5923;SDS011;2987;50.884;14.818;2022-09-09T00:02:01;4.57;;;4.23;;
5923;SDS011;2987;50.884;14.818;2022-09-09T00:04:41;5.53;;;4.40;;
5923;SDS011;2987;50.884;14.818;2022-09-09T00:23:12;4.10;;;3.70;;
5923;SDS011;2987;50.884;14.818;2022-09-09T00:25:48;5.17;;;3.53;;
5923;SDS011;2987;50.884;14.818;2022-09-09T00:31:20;3.97;;;3.67;;
5923;SDS011;2987;50.884;14.818;2022-09-09T00:33:52;4.00;;;3.40;;
5923;SDS011;2987;50.884;14.818;2022-09-09T00:38:49;3.67;;;3.37;;
5923;SDS011;2987;50.884;14.818;2022-09-09T00:41:42;4.37;;;3.47;;
5923;SDS011;2987;50.884;14.818;2022-09-09T00:44:30;3.60;;;3.23;;
5923;SDS011;2987;50.884;14.818;2022-09-09T00:47:04;3.43;;;3.23;;
5923;SDS011;2987;50.884;14.818;2022-09-09T00:52:54;3.90;;;3.50;;
5923;SDS011;2987;50.884;14.818;2022-09-09T01:08:52;4.00;;;3.50;;
5923;SDS011;2987;50.884;14.818;2022-09-09T01:11:45;6.87;;;4.13;;
5923;SDS011;2987;50.884;14.818;2022-09-09T01:40:58;4.73;;;3.90;;
5923;SDS011;2987;50.884;14.818;2022-09-09T01:43:33;5.23;;;4.57;;
5923;SDS011;2987;50.884;14.818;2022-09-09T01:51:05;5.00;;;3.60;;
5923;SDS011;2987;50.884;14.818;2022-09-09T01:53:31;5.30;;;3.80;;
5923;SDS011;2987;50.884;14.818;2022-09-09T01:56:02;5.40;;;4.17;;
5923;SDS011;2987;50.884;14.818;2022-09-09T02:01:43;4.77;;;3.60;;
5923;SDS011;2987;50.884;14.818;2022-09-09T02:04:30;4.20;;;3.80;;
5923;SDS011;2987;50.884;14.818;2022-09-09T02:10:19;3.80;;;3.43;;
5923;SDS011;2987;50.884;14.818;2022-09-09T02:17:58;6.27;;;3.70;;
5923;SDS011;2987;50.884;14.818;2022-09-09T02:20:27;10.47;;;3.77;;
5923;SDS011;2987;50.884;14.818;2022-09-09T02:23:00;5.27;;;3.50;;
5923;SDS011;2987;50.884;14.818;2022-09-09T02:25:28;4.10;;;3.50;;
5923;SDS011;2987;50.884;14.818;2022-09-09T02:28:03;4.20;;;3.80;;
5923;SDS011;2987;50.884;14.818;2022-09-09T02:30:33;6.50;;;3.80;;
5923;SDS011;2987;50.884;14.818;2022-09-09T02:33:03;4.50;;;3.20;;
5923;SDS011;2987;50.884;14.818;2022-09-09T02:35:42;3.50;;;3.20;;
5923;SDS011;2987;50.884;14.818;2022-09-09T02:38:12;3.90;;;3.60;;
5923;SDS011;2987;50.884;14.818;2022-09-09T02:40:46;5.23;;;3.30;;
5923;SDS011;2987;50.884;14.818;2022-09-09T02:43:14;4.07;;;3.77;;
5923;SDS011;2987;50.884;14.818;2022-09-09T02:45:47;4.27;;;3.60;;
5923;SDS011;2987;50.884;14.818;2022-09-09T02:51:00;4.90;;;3.23;;
5923;SDS011;2987;50.884;14.818;2022-09-09T02:53:40;3.63;;;3.30;;
5923;SDS011;2987;50.884;14.818;2022-09-09T02:56:14;3.80;;;3.37;;
5923;SDS011;2987;50.884;14.818;2022-09-09T02:58:47;4.67;;;3.57;;
5923;SDS011;2987;50.884;14.818;2022-09-09T03:01:17;3.73;;;3.43;;
5923;SDS011;2987;50.884;14.818;2022-09-09T03:03:44;4.77;;;3.70;;
5923;SDS011;2987;50.884;14.818;2022-09-09T03:06:15;6.53;;;3.83;;
5923;SDS011;2987;50.884;14.818;2022-09-09T03:08:46;3.90;;;3.57;;
5923;SDS011;2987;50.884;14.818;2022-09-09T03:11:12;4.00;;;3.70;;
5923;SDS011;2987;50.884;14.818;2022-09-09T03:13:41;3.47;;;3.17;;
5923;SDS011;2987;50.884;14.818;2022-09-09T03:16:09;3.77;;;3.47;;
5923;SDS011;2987;50.884;14.818;2022-09-09T03:18:41;4.00;;;3.60;;
5923;SDS011;2987;50.884;14.818;2022-09-09T03:21:08;4.97;;;2.93;;
5923;SDS011;2987;50.884;14.818;2022-09-09T03:23:36;6.03;;;3.57;;
5923;SDS011;2987;50.884;14.818;2022-09-09T03:26:03;4.20;;;3.27;;
5923;SDS011;2987;50.884;14.818;2022-09-09T03:28:38;6.53;;;3.77;;
5923;SDS011;2987;50.884;14.818;2022-09-09T03:31:05;3.97;;;3.43;;
5923;SDS011;2987;50.884;14.818;2022-09-09T03:33:37;5.60;;;3.63;;
5923;SDS011;2987;50.884;14.818;2022-09-09T03:36:06;3.70;;;3.40;;
5923;SDS011;2987;50.884;14.818;2022-09-09T03:38:34;3.73;;;3.40;;
5923;SDS011;2987;50.884;14.818;2022-09-09T03:41:00;3.57;;;3.30;;
5923;SDS011;2987;50.884;14.818;2022-09-09T03:43:28;5.03;;;3.60;;
5923;SDS011;2987;50.884;14.818;2022-09-09T03:45:55;3.67;;;3.37;;
5923;SDS011;2987;50.884;14.818;2022-09-09T03:48:24;3.50;;;3.20;;
5923;SDS011;2987;50.884;14.818;2022-09-09T03:50:53;6.53;;;3.40;;
5923;SDS011;2987;50.884;14.818;2022-09-09T03:53:22;3.93;;;3.40;;
5923;SDS011;2987;50.884;14.818;2022-09-09T03:55:51;4.70;;;3.50;;
5923;SDS011;2987;50.884;14.818;2022-09-09T03:58:22;7.77;;;3.80;;
5923;SDS011;2987;50.884;14.818;2022-09-09T04:00:56;3.63;;;3.33;;
5923;SDS011;2987;50.884;14.818;2022-09-09T04:03:27;3.93;;;3.23;;
5923;SDS011;2987;50.884;14.818;2022-09-09T04:05:54;5.33;;;3.73;;
5923;SDS011;2987;50.884;14.818;2022-09-09T04:08:23;3.77;;;3.37;;
5923;SDS011;2987;50.884;14.818;2022-09-09T04:10:51;3.97;;;3.53;;
5923;SDS011;2987;50.884;14.818;2022-09-09T04:13:18;5.60;;;3.90;;
5923;SDS011;2987;50.884;14.818;2022-09-09T04:15:55;4.60;;;3.20;;
5923;SDS011;2987;50.884;14.818;2022-09-09T04:18:24;5.07;;;3.10;;
5923;SDS011;2987;50.884;14.818;2022-09-09T04:20:54;4.53;;;3.30;;
5923;SDS011;2987;50.884;14.818;2022-09-09T04:23:26;3.33;;;3.07;;
5923;SDS011;2987;50.884;14.818;2022-09-09T04:25:57;6.83;;;3.53;;
5923;SDS011;2987;50.884;14.818;2022-09-09T04:28:25;8.20;;;3.40;;
5923;SDS011;2987;50.884;14.818;2022-09-09T04:30:53;6.40;;;3.50;;
5923;SDS011;2987;50.884;14.818;2022-09-09T04:33:20;4.27;;;3.53;;
5923;SDS011;2987;50.884;14.818;2022-09-09T04:35:48;4.33;;;3.70;;
5923;SDS011;2987;50.884;14.818;2022-09-09T04:38:17;4.60;;;3.23;;
5923;SDS011;2987;50.884;14.818;2022-09-09T04:40:47;4.03;;;3.60;;
5923;SDS011;2987;50.884;14.818;2022-09-09T04:43:15;4.87;;;3.47;;
5923;SDS011;2987;50.884;14.818;2022-09-09T04:45:43;4.07;;;3.50;;
5923;SDS011;2987;50.884;14.818;2022-09-09T04:48:12;5.73;;;4.27;;
5923;SDS011;2987;50.884;14.818;2022-09-09T04:50:39;19.97;;;7.70;;
5923;SDS011;2987;50.884;14.818;2022-09-09T04:53:08;17.37;;;7.50;;
5923;SDS011;2987;50.884;14.818;2022-09-09T04:55:37;7.27;;;4.80;;
5923;SDS011;2987;50.884;14.818;2022-09-09T04:58:04;8.33;;;4.70;;
5923;SDS011;2987;50.884;14.818;2022-09-09T05:00:32;7.83;;;5.20;;
5923;SDS011;2987;50.884;14.818;2022-09-09T05:03:02;10.03;;;5.30;;
5923;SDS011;2987;50.884;14.818;2022-09-09T05:05:30;9.43;;;4.73;;
5923;SDS011;2987;50.884;14.818;2022-09-09T05:08:00;10.63;;;5.17;;
5923;SDS011;2987;50.884;14.818;2022-09-09T05:10:31;10.23;;;5.57;;
5923;SDS011;2987;50.884;14.818;2022-09-09T05:12:59;11.90;;;5.40;;
5923;SDS011;2987;50.884;14.818;2022-09-09T05:15:28;6.60;;;4.47;;
5923;SDS011;2987;50.884;14.818;2022-09-09T05:17:57;10.50;;;5.37;;
5923;SDS011;2987;50.884;14.818;2022-09-09T05:20:25;9.20;;;4.80;;
5923;SDS011;2987;50.884;14.818;2022-09-09T05:22:53;7.00;;;4.50;;
5923;SDS011;2987;50.884;14.818;2022-09-09T05:25:21;6.00;;;4.23;;
5923;SDS011;2987;50.884;14.818;2022-09-09T05:27:53;7.67;;;4.37;;
5923;SDS011;2987;50.884;14.818;2022-09-09T05:30:20;8.67;;;4.73;;
5923;SDS011;2987;50.884;14.818;2022-09-09T05:32:49;7.50;;;4.27;;
5923;SDS011;2987;50.884;14.818;2022-09-09T05:35:17;9.37;;;4.63;;
5923;SDS011;2987;50.884;14.818;2022-09-09T05:37:45;5.37;;;4.07;;
5923;SDS011;2987;50.884;14.818;2022-09-09T05:40:12;9.83;;;4.30;;
5923;SDS011;2987;50.884;14.818;2022-09-09T05:42:39;6.93;;;4.70;;
5923;SDS011;2987;50.884;14.818;2022-09-09T05:45:07;5.23;;;4.00;;
5923;SDS011;2987;50.884;14.818;2022-09-09T05:47:35;5.67;;;4.37;;
5923;SDS011;2987;50.884;14.818;2022-09-09T05:50:05;7.33;;;4.80;;
5923;SDS011;2987;50.884;14.818;2022-09-09T05:52:31;9.00;;;4.80;;
5923;SDS011;2987;50.884;14.818;2022-09-09T05:54:58;6.27;;;4.97;;
5923;SDS011;2987;50.884;14.818;2022-09-09T05:57:25;10.83;;;5.90;;
5923;SDS011;2987;50.884;14.818;2022-09-09T05:59:51;6.90;;;5.90;;
5923;SDS011;2987;50.884;14.818;2022-09-09T06:02:17;6.20;;;5.50;;
5923;SDS011;2987;50.884;14.818;2022-09-09T06:04:43;8.43;;;6.17;;
5923;SDS011;2987;50.884;14.818;2022-09-09T06:07:10;8.23;;;5.40;;
5923;SDS011;2987;50.884;14.818;2022-09-09T06:09:37;7.67;;;5.43;;
5923;SDS011;2987;50.884;14.818;2022-09-09T06:12:03;10.13;;;5.43;;
5923;SDS011;2987;50.884;14.818;2022-09-09T06:14:33;9.03;;;5.27;;
5923;SDS011;2987;50.884;14.818;2022-09-09T06:17:01;6.63;;;4.97;;
5923;SDS011;2987;50.884;14.818;2022-09-09T06:19:29;6.90;;;4.50;;
5923;SDS011;2987;50.884;14.818;2022-09-09T06:21:58;5.13;;;4.10;;
5923;SDS011;2987;50.884;14.818;2022-09-09T06:24:26;7.87;;;4.60;;
5923;SDS011;2987;50.884;14.818;2022-09-09T06:26:52;5.83;;;4.73;;
5923;SDS011;2987;50.884;14.818;2022-09-09T06:29:23;7.60;;;5.10;;
5923;SDS011;2987;50.884;14.818;2022-09-09T06:31:51;7.50;;;4.93;;
5923;SDS011;2987;50.884;14.818;2022-09-09T06:34:21;6.23;;;5.63;;
5923;SDS011;2987;50.884;14.818;2022-09-09T06:36:50;6.53;;;5.63;;
5923;SDS011;2987;50.884;14.818;2022-09-09T06:39:17;6.33;;;5.73;;
5923;SDS011;2987;50.884;14.818;2022-09-09T06:41:47;9.60;;;5.47;;
5923;SDS011;2987;50.884;14.818;2022-09-09T06:44:38;8.30;;;5.47;;
5923;SDS011;2987;50.884;14.818;2022-09-09T06:47:05;5.80;;;5.30;;
5923;SDS011;2987;50.884;14.818;2022-09-09T06:49:31;9.40;;;6.20;;
5923;SDS011;2987;50.884;14.818;2022-09-09T06:51:57;6.53;;;5.77;;
5923;SDS011;2987;50.884;14.818;2022-09-09T06:54:23;7.83;;;7.03;;
5923;SDS011;2987;50.884;14.818;2022-09-09T06:56:51;7.73;;;6.93;;
5923;SDS011;2987;50.884;14.818;2022-09-09T06:59:22;8.23;;;6.33;;
5923;SDS011;2987;50.884;14.818;2022-09-09T07:01:49;7.50;;;6.80;;
5923;SDS011;2987;50.884;14.818;2022-09-09T07:04:18;8.77;;;7.63;;
5923;SDS011;2987;50.884;14.818;2022-09-09T07:06:44;11.47;;;7.70;;
5923;SDS011;2987;50.884;14.818;2022-09-09T07:09:16;10.23;;;8.40;;
5923;SDS011;2987;50.884;14.818;2022-09-09T07:11:47;12.20;;;9.50;;
5923;SDS011;2987;50.884;14.818;2022-09-09T07:14:16;9.47;;;8.57;;
5923;SDS011;2987;50.884;14.818;2022-09-09T07:16:46;9.07;;;8.27;;
5923;SDS011;2987;50.884;14.818;2022-09-09T07:19:15;11.03;;;8.40;;
5923;SDS011;2987;50.884;14.818;2022-09-09T07:21:44;10.70;;;9.60;;
5923;SDS011;2987;50.884;14.818;2022-09-09T07:24:13;10.37;;;9.43;;
5923;SDS011;2987;50.884;14.818;2022-09-09T07:26:44;10.90;;;9.27;;
5923;SDS011;2987;50.884;14.818;2022-09-09T07:29:14;11.07;;;9.83;;
5923;SDS011;2987;50.884;14.818;2022-09-09T07:31:42;10.93;;;9.60;;
5923;SDS011;2987;50.884;14.818;2022-09-09T07:34:13;9.83;;;8.80;;
5923;SDS011;2987;50.884;14.818;2022-09-09T07:36:40;9.83;;;8.83;;
5923;SDS011;2987;50.884;14.818;2022-09-09T07:39:11;10.33;;;9.00;;
5923;SDS011;2987;50.884;14.818;2022-09-09T07:41:43;8.60;;;7.43;;
5923;SDS011;2987;50.884;14.818;2022-09-09T07:44:18;8.27;;;7.53;;
5923;SDS011;2987;50.884;14.818;2022-09-09T07:46:50;10.03;;;7.27;;
5923;SDS011;2987;50.884;14.818;2022-09-09T07:49:21;7.80;;;7.10;;
5923;SDS011;2987;50.884;14.818;2022-09-09T07:51:48;7.90;;;7.20;;
5923;SDS011;2987;50.884;14.818;2022-09-09T07:54:17;8.63;;;7.40;;
5923;SDS011;2987;50.884;14.818;2022-09-09T07:56:48;10.73;;;7.50;;
5923;SDS011;2987;50.884;14.818;2022-09-09T07:59:16;7.70;;;6.90;;
5923;SDS011;2987;50.884;14.818;2022-09-09T08:01:46;9.63;;;6.57;;
5923;SDS011;2987;50.884;14.818;2022-09-09T08:04:22;6.97;;;6.27;;
5923;SDS011;2987;50.884;14.818;2022-09-09T08:06:53;6.77;;;6.10;;
5923;SDS011;2987;50.884;14.818;2022-09-09T08:09:24;6.53;;;5.90;;
5923;SDS011;2987;50.884;14.818;2022-09-09T08:11:59;6.23;;;5.40;;
5923;SDS011;2987;50.884;14.818;2022-09-09T08:14:27;5.73;;;4.70;;
5923;SDS011;2987;50.884;14.818;2022-09-09T08:16:56;6.87;;;5.40;;
5923;SDS011;2987;50.884;14.818;2022-09-09T08:19:25;5.90;;;4.83;;
5923;SDS011;2987;50.884;14.818;2022-09-09T08:21:55;6.07;;;4.43;;
5923;SDS011;2987;50.884;14.818;2022-09-09T08:24:21;5.80;;;4.40;;
5923;SDS011;2987;50.884;14.818;2022-09-09T08:26:49;5.53;;;4.40;;
5923;SDS011;2987;50.884;14.818;2022-09-09T08:29:19;6.73;;;4.27;;
5923;SDS011;2987;50.884;14.818;2022-09-09T08:31:47;4.83;;;4.10;;
5923;SDS011;2987;50.884;14.818;2022-09-09T08:34:16;4.17;;;3.77;;
5923;SDS011;2987;50.884;14.818;2022-09-09T08:36:48;5.17;;;3.70;;
5923;SDS011;2987;50.884;14.818;2022-09-09T08:39:17;4.60;;;4.20;;
5923;SDS011;2987;50.884;14.818;2022-09-09T08:44:56;4.23;;;3.87;;
5923;SDS011;2987;50.884;14.818;2022-09-09T09:00:57;3.97;;;2.97;;
5923;SDS011;2987;50.884;14.818;2022-09-09T09:06:50;4.30;;;2.73;;
5923;SDS011;2987;50.884;14.818;2022-09-09T09:22:27;4.40;;;2.30;;
5923;SDS011;2987;50.884;14.818;2022-09-09T09:25:10;2.57;;;2.17;;
5923;SDS011;2987;50.884;14.818;2022-09-09T09:27:59;4.90;;;2.30;;
5923;SDS011;2987;50.884;14.818;2022-09-09T09:30:35;3.50;;;2.40;;
5923;SDS011;2987;50.884;14.818;2022-09-09T09:33:14;4.43;;;2.23;;
5923;SDS011;2987;50.884;14.818;2022-09-09T09:35:50;2.93;;;2.30;;
5923;SDS011;2987;50.884;14.818;2022-09-09T09:38:19;3.47;;;2.13;;
5923;SDS011;2987;50.884;14.818;2022-09-09T09:40:56;3.07;;;1.90;;
5923;SDS011;2987;50.884;14.818;2022-09-09T09:43:26;3.50;;;1.97;;
5923;SDS011;2987;50.884;14.818;2022-09-09T09:45:58;5.10;;;2.20;;
5923;SDS011;2987;50.884;14.818;2022-09-09T09:48:26;7.30;;;2.10;;
5923;SDS011;2987;50.884;14.818;2022-09-09T09:51:08;2.37;;;1.90;;
5923;SDS011;2987;50.884;14.818;2022-09-09T09:53:41;6.10;;;1.93;;
5923;SDS011;2987;50.884;14.818;2022-09-09T09:56:11;2.50;;;1.83;;
5923;SDS011;2987;50.884;14.818;2022-09-09T09:58:49;3.87;;;1.97;;
5923;SDS011;2987;50.884;14.818;2022-09-09T10:01:22;2.43;;;1.60;;
5923;SDS011;2987;50.884;14.818;2022-09-09T10:03:51;7.60;;;2.20;;
5923;SDS011;2987;50.884;14.818;2022-09-09T10:06:38;2.53;;;1.60;;
5923;SDS011;2987;50.884;14.818;2022-09-09T10:14:37;1.73;;;1.53;;
5923;SDS011;2987;50.884;14.818;2022-09-09T10:17:23;5.40;;;1.60;;
5923;SDS011;2987;50.884;14.818;2022-09-09T10:22:49;2.83;;;1.30;;
5923;SDS011;2987;50.884;14.818;2022-09-09T10:25:37;4.03;;;1.63;;
5923;SDS011;2987;50.884;14.818;2022-09-09T10:28:29;3.77;;;1.23;;
5923;SDS011;2987;50.884;14.818;2022-09-09T10:31:17;1.33;;;1.20;;
5923;SDS011;2987;50.884;14.818;2022-09-09T10:33:57;4.13;;;1.37;;
5923;SDS011;2987;50.884;14.818;2022-09-09T10:36:47;4.50;;;1.50;;
5923;SDS011;2987;50.884;14.818;2022-09-09T10:39:29;5.23;;;1.77;;
5923;SDS011;2987;50.884;14.818;2022-09-09T10:42:06;3.90;;;1.40;;
5923;SDS011;2987;50.884;14.818;2022-09-09T11:03:51;3.17;;;1.27;;
5923;SDS011;2987;50.884;14.818;2022-09-09T11:08:53;2.23;;;1.50;;
5923;SDS011;2987;50.884;14.818;2022-09-09T11:11:26;2.00;;;1.20;;
5923;SDS011;2987;50.884;14.818;2022-09-09T11:14:01;4.33;;;1.20;;
5923;SDS011;2987;50.884;14.818;2022-09-09T11:16:40;3.23;;;1.47;;
5923;SDS011;2987;50.884;14.818;2022-09-09T11:19:16;2.50;;;1.50;;
5923;SDS011;2987;50.884;14.818;2022-09-09T11:21:55;2.13;;;1.40;;
5923;SDS011;2987;50.884;14.818;2022-09-09T11:24:29;3.17;;;1.57;;
5923;SDS011;2987;50.884;14.818;2022-09-09T11:27:05;4.53;;;1.60;;
5923;SDS011;2987;50.884;14.818;2022-09-09T11:33:03;2.70;;;1.30;;
5923;SDS011;2987;50.884;14.818;2022-09-09T11:35:47;4.50;;;1.40;;
5923;SDS011;2987;50.884;14.818;2022-09-09T11:38:41;2.90;;;1.40;;
5923;SDS011;2987;50.884;14.818;2022-09-09T11:41:12;2.53;;;1.20;;
5923;SDS011;2987;50.884;14.818;2022-09-09T11:43:45;3.27;;;1.40;;
5923;SDS011;2987;50.884;14.818;2022-09-09T11:46:15;2.50;;;1.33;;
5923;SDS011;2987;50.884;14.818;2022-09-09T11:48:44;2.90;;;1.20;;
5923;SDS011;2987;50.884;14.818;2022-09-09T11:51:13;2.17;;;1.10;;
5923;SDS011;2987;50.884;14.818;2022-09-09T11:53:57;2.40;;;1.20;;
5923;SDS011;2987;50.884;14.818;2022-09-09T11:56:28;4.53;;;1.40;;
5923;SDS011;2987;50.884;14.818;2022-09-09T11:59:00;4.37;;;1.20;;
5923;SDS011;2987;50.884;14.818;2022-09-09T12:01:30;2.00;;;1.10;;
5923;SDS011;2987;50.884;14.818;2022-09-09T12:04:17;4.17;;;1.10;;
5923;SDS011;2987;50.884;14.818;2022-09-09T12:10:19;3.57;;;1.23;;
5923;SDS011;2987;50.884;14.818;2022-09-09T12:13:21;3.57;;;1.10;;
5923;SDS011;2987;50.884;14.818;2022-09-09T12:21:19;2.67;;;1.30;;
5923;SDS011;2987;50.884;14.818;2022-09-09T12:24:09;2.07;;;1.00;;
5923;SDS011;2987;50.884;14.818;2022-09-09T12:26:41;3.27;;;1.20;;
5923;SDS011;2987;50.884;14.818;2022-09-09T12:29:24;5.20;;;1.20;;
5923;SDS011;2987;50.884;14.818;2022-09-09T12:32:11;2.90;;;1.10;;
5923;SDS011;2987;50.884;14.818;2022-09-09T12:34:44;5.00;;;1.20;;
5923;SDS011;2987;50.884;14.818;2022-09-09T12:37:25;4.00;;;1.20;;
5923;SDS011;2987;50.884;14.818;2022-09-09T12:39:58;6.13;;;1.50;;
5923;SDS011;2987;50.884;14.818;2022-09-09T12:42:30;3.47;;;1.33;;
5923;SDS011;2987;50.884;14.818;2022-09-09T12:44:59;3.20;;;0.90;;
5923;SDS011;2987;50.884;14.818;2022-09-09T12:47:36;3.17;;;1.23;;
5923;SDS011;2987;50.884;14.818;2022-09-09T12:50:22;5.03;;;1.07;;
5923;SDS011;2987;50.884;14.818;2022-09-09T12:52:52;3.03;;;1.00;;
5923;SDS011;2987;50.884;14.818;2022-09-09T12:55:28;2.87;;;1.10;;
5923;SDS011;2987;50.884;14.818;2022-09-09T12:57:56;1.70;;;1.00;;
5923;SDS011;2987;50.884;14.818;2022-09-09T13:00:25;0.93;;;0.80;;
5923;SDS011;2987;50.884;14.818;2022-09-09T13:02:53;1.63;;;1.00;;
5923;SDS011;2987;50.884;14.818;2022-09-09T13:05:22;1.97;;;1.20;;
5923;SDS011;2987;50.884;14.818;2022-09-09T13:07:52;2.67;;;0.97;;
5923;SDS011;2987;50.884;14.818;2022-09-09T13:10:28;2.43;;;1.13;;
5923;SDS011;2987;50.884;14.818;2022-09-09T13:12:58;2.43;;;0.90;;
5923;SDS011;2987;50.884;14.818;2022-09-09T13:15:26;2.40;;;1.10;;
5923;SDS011;2987;50.884;14.818;2022-09-09T13:17:56;4.43;;;1.00;;
5923;SDS011;2987;50.884;14.818;2022-09-09T13:20:26;4.23;;;1.17;;
5923;SDS011;2987;50.884;14.818;2022-09-09T13:22:53;4.80;;;1.40;;
5923;SDS011;2987;50.884;14.818;2022-09-09T13:25:22;3.70;;;1.50;;
5923;SDS011;2987;50.884;14.818;2022-09-09T13:27:56;1.70;;;1.20;;
5923;SDS011;2987;50.884;14.818;2022-09-09T13:30:26;3.40;;;1.20;;
5923;SDS011;2987;50.884;14.818;2022-09-09T13:33:04;2.53;;;1.00;;
5923;SDS011;2987;50.884;14.818;2022-09-09T13:35:45;3.93;;;1.10;;
5923;SDS011;2987;50.884;14.818;2022-09-09T13:38:16;5.03;;;1.20;;
5923;SDS011;2987;50.884;14.818;2022-09-09T13:40:59;2.77;;;1.20;;
5923;SDS011;2987;50.884;14.818;2022-09-09T13:43:31;3.00;;;1.03;;
5923;SDS011;2987;50.884;14.818;2022-09-09T13:51:35;2.83;;;1.20;;
5923;SDS011;2987;50.884;14.818;2022-09-09T13:54:09;1.90;;;1.13;;
5923;SDS011;2987;50.884;14.818;2022-09-09T13:56:40;2.13;;;1.17;;
5923;SDS011;2987;50.884;14.818;2022-09-09T13:59:09;4.13;;;1.23;;
5923;SDS011;2987;50.884;14.818;2022-09-09T14:04:04;3.30;;;1.20;;
5923;SDS011;2987;50.884;14.818;2022-09-09T14:06:32;2.20;;;0.87;;
5923;SDS011;2987;50.884;14.818;2022-09-09T14:09:02;2.50;;;0.90;;
5923;SDS011;2987;50.884;14.818;2022-09-09T14:11:28;2.23;;;0.97;;
5923;SDS011;2987;50.884;14.818;2022-09-09T14:13:54;3.43;;;1.30;;
5923;SDS011;2987;50.884;14.818;2022-09-09T14:16:21;1.83;;;1.10;;
5923;SDS011;2987;50.884;14.818;2022-09-09T14:18:47;3.50;;;1.33;;
5923;SDS011;2987;50.884;14.818;2022-09-09T14:21:14;6.00;;;2.40;;
5923;SDS011;2987;50.884;14.818;2022-09-09T14:23:41;5.07;;;2.73;;
5923;SDS011;2987;50.884;14.818;2022-09-09T14:26:07;5.40;;;1.70;;
5923;SDS011;2987;50.884;14.818;2022-09-09T14:28:35;3.07;;;1.43;;
5923;SDS011;2987;50.884;14.818;2022-09-09T14:31:02;4.40;;;1.10;;
5923;SDS011;2987;50.884;14.818;2022-09-09T14:33:29;3.23;;;0.90;;
5923;SDS011;2987;50.884;14.818;2022-09-09T14:35:56;3.00;;;0.90;;
5923;SDS011;2987;50.884;14.818;2022-09-09T14:38:24;1.73;;;1.00;;
5923;SDS011;2987;50.884;14.818;2022-09-09T14:40:51;2.37;;;1.07;;
5923;SDS011;2987;50.884;14.818;2022-09-09T14:43:17;2.80;;;1.17;;
5923;SDS011;2987;50.884;14.818;2022-09-09T14:45:43;1.90;;;1.00;;
5923;SDS011;2987;50.884;14.818;2022-09-09T14:48:09;1.70;;;1.00;;
5923;SDS011;2987;50.884;14.818;2022-09-09T14:50:35;3.53;;;1.23;;
5923;SDS011;2987;50.884;14.818;2022-09-09T14:53:05;4.33;;;1.10;;
5923;SDS011;2987;50.884;14.818;2022-09-09T14:55:32;1.70;;;0.90;;
5923;SDS011;2987;50.884;14.818;2022-09-09T14:57:58;2.03;;;1.00;;
5923;SDS011;2987;50.884;14.818;2022-09-09T15:00:24;1.83;;;0.87;;
5923;SDS011;2987;50.884;14.818;2022-09-09T15:02:54;4.60;;;1.20;;
5923;SDS011;2987;50.884;14.818;2022-09-09T15:05:21;3.63;;;0.97;;
5923;SDS011;2987;50.884;14.818;2022-09-09T15:07:49;2.33;;;0.90;;
5923;SDS011;2987;50.884;14.818;2022-09-09T15:10:16;1.90;;;0.77;;
5923;SDS011;2987;50.884;14.818;2022-09-09T15:12:43;2.57;;;1.00;;
5923;SDS011;2987;50.884;14.818;2022-09-09T15:15:09;2.83;;;1.00;;
5923;SDS011;2987;50.884;14.818;2022-09-09T15:17:36;2.97;;;0.80;;
5923;SDS011;2987;50.884;14.818;2022-09-09T15:20:03;3.00;;;0.90;;
5923;SDS011;2987;50.884;14.818;2022-09-09T15:22:31;3.37;;;0.90;;
5923;SDS011;2987;50.884;14.818;2022-09-09T15:25:00;2.23;;;0.80;;
5923;SDS011;2987;50.884;14.818;2022-09-09T15:27:26;0.80;;;0.70;;
5923;SDS011;2987;50.884;14.818;2022-09-09T15:29:53;4.87;;;0.90;;
5923;SDS011;2987;50.884;14.818;2022-09-09T15:32:20;5.27;;;1.13;;
5923;SDS011;2987;50.884;14.818;2022-09-09T15:34:47;2.03;;;0.87;;
5923;SDS011;2987;50.884;14.818;2022-09-09T15:37:13;4.43;;;1.10;;
5923;SDS011;2987;50.884;14.818;2022-09-09T15:39:39;4.30;;;1.20;;
5923;SDS011;2987;50.884;14.818;2022-09-09T15:42:06;3.83;;;1.20;;
5923;SDS011;2987;50.884;14.818;2022-09-09T15:44:41;4.50;;;1.20;;
5923;SDS011;2987;50.884;14.818;2022-09-09T15:47:10;1.30;;;0.80;;
5923;SDS011;2987;50.884;14.818;2022-09-09T15:49:38;1.83;;;0.73;;
5923;SDS011;2987;50.884;14.818;2022-09-09T15:52:04;2.73;;;0.90;;
5923;SDS011;2987;50.884;14.818;2022-09-09T15:54:31;2.10;;;1.00;;
5923;SDS011;2987;50.884;14.818;2022-09-09T15:57:01;2.43;;;0.80;;
5923;SDS011;2987;50.884;14.818;2022-09-09T15:59:29;3.70;;;1.00;;
5923;SDS011;2987;50.884;14.818;2022-09-09T16:01:57;2.40;;;0.80;;
5923;SDS011;2987;50.884;14.818;2022-09-09T16:04:25;2.27;;;0.93;;
5923;SDS011;2987;50.884;14.818;2022-09-09T16:06:56;2.07;;;0.90;;
5923;SDS011;2987;50.884;14.818;2022-09-09T16:09:24;2.37;;;0.80;;
5923;SDS011;2987;50.884;14.818;2022-09-09T16:11:52;2.17;;;0.90;;
5923;SDS011;2987;50.884;14.818;2022-09-09T16:14:21;1.00;;;0.60;;
5923;SDS011;2987;50.884;14.818;2022-09-09T16:16:48;0.80;;;0.60;;
5923;SDS011;2987;50.884;14.818;2022-09-09T16:19:14;1.87;;;1.20;;
5923;SDS011;2987;50.884;14.818;2022-09-09T16:21:42;3.60;;;0.90;;
5923;SDS011;2987;50.884;14.818;2022-09-09T16:24:11;1.40;;;0.73;;
5923;SDS011;2987;50.884;14.818;2022-09-09T16:26:39;2.63;;;0.80;;
5923;SDS011;2987;50.884;14.818;2022-09-09T16:29:10;1.80;;;1.03;;
5923;SDS011;2987;50.884;14.818;2022-09-09T16:31:39;1.27;;;1.03;;
5923;SDS011;2987;50.884;14.818;2022-09-09T16:34:06;2.27;;;1.00;;
5923;SDS011;2987;50.884;14.818;2022-09-09T16:36:35;1.87;;;1.00;;
5923;SDS011;2987;50.884;14.818;2022-09-09T16:39:05;2.73;;;0.97;;
5923;SDS011;2987;50.884;14.818;2022-09-09T16:41:34;1.20;;;0.93;;
5923;SDS011;2987;50.884;14.818;2022-09-09T16:44:03;3.23;;;0.97;;
5923;SDS011;2987;50.884;14.818;2022-09-09T16:46:32;1.37;;;0.73;;
5923;SDS011;2987;50.884;14.818;2022-09-09T16:49:01;2.37;;;1.20;;
5923;SDS011;2987;50.884;14.818;2022-09-09T16:51:31;1.40;;;1.30;;
5923;SDS011;2987;50.884;14.818;2022-09-09T16:54:01;2.83;;;1.20;;
5923;SDS011;2987;50.884;14.818;2022-09-09T16:56:30;2.10;;;1.20;;
5923;SDS011;2987;50.884;14.818;2022-09-09T16:59:00;2.00;;;1.17;;
5923;SDS011;2987;50.884;14.818;2022-09-09T17:01:29;6.90;;;1.83;;
5923;SDS011;2987;50.884;14.818;2022-09-09T17:03:59;2.60;;;1.40;;
5923;SDS011;2987;50.884;14.818;2022-09-09T17:06:27;4.57;;;1.67;;
5923;SDS011;2987;50.884;14.818;2022-09-09T17:08:56;3.70;;;1.83;;
5923;SDS011;2987;50.884;14.818;2022-09-09T17:11:24;2.93;;;1.60;;
5923;SDS011;2987;50.884;14.818;2022-09-09T17:13:51;3.83;;;1.80;;
5923;SDS011;2987;50.884;14.818;2022-09-09T17:16:20;1.90;;;1.40;;
5923;SDS011;2987;50.884;14.818;2022-09-09T17:18:48;4.00;;;1.53;;
5923;SDS011;2987;50.884;14.818;2022-09-09T17:21:17;1.70;;;1.23;;
5923;SDS011;2987;50.884;14.818;2022-09-09T17:23:45;4.33;;;1.20;;
5923;SDS011;2987;50.884;14.818;2022-09-09T17:26:13;4.70;;;1.50;;
5923;SDS011;2987;50.884;14.818;2022-09-09T17:28:41;2.80;;;1.20;;
5923;SDS011;2987;50.884;14.818;2022-09-09T17:31:09;2.23;;;1.20;;
5923;SDS011;2987;50.884;14.818;2022-09-09T17:33:38;2.53;;;1.70;;
5923;SDS011;2987;50.884;14.818;2022-09-09T17:36:08;4.77;;;2.17;;
5923;SDS011;2987;50.884;14.818;2022-09-09T17:38:37;4.20;;;2.20;;
5923;SDS011;2987;50.884;14.818;2022-09-09T17:41:08;7.50;;;2.03;;
5923;SDS011;2987;50.884;14.818;2022-09-09T17:43:38;4.33;;;1.90;;
5923;SDS011;2987;50.884;14.818;2022-09-09T17:46:07;2.47;;;1.40;;
5923;SDS011;2987;50.884;14.818;2022-09-09T17:48:37;2.07;;;1.20;;
5923;SDS011;2987;50.884;14.818;2022-09-09T17:51:04;2.40;;;1.30;;
5923;SDS011;2987;50.884;14.818;2022-09-09T17:53:36;1.97;;;1.50;;
5923;SDS011;2987;50.884;14.818;2022-09-09T17:56:05;2.37;;;1.40;;
5923;SDS011;2987;50.884;14.818;2022-09-09T17:58:33;1.90;;;1.40;;
5923;SDS011;2987;50.884;14.818;2022-09-09T18:01:02;2.87;;;1.40;;
5923;SDS011;2987;50.884;14.818;2022-09-09T18:03:32;5.03;;;1.73;;
5923;SDS011;2987;50.884;14.818;2022-09-09T18:06:02;2.20;;;1.40;;
5923;SDS011;2987;50.884;14.818;2022-09-09T18:08:30;2.93;;;1.33;;
5923;SDS011;2987;50.884;14.818;2022-09-09T18:10:58;2.50;;;1.30;;